sensor_id;sensor_type;location;lat;lon;timestamp;P1;durP1;ratioP1;P2;durP2;ratioP2
65033;SDS011;51601;51.356;12.458;2022-07-01T00:02:29;22.77;;;14.85;;
65033;SDS011;51601;51.356;12.458;2022-07-01T00:06:44;19.77;;;12.80;;
65033;SDS011;51601;51.356;12.458;2022-07-01T00:10:59;20.33;;;14.73;;
65033;SDS011;51601;51.356;12.458;2022-07-01T00:15:13;22.38;;;15.43;;
65033;SDS011;51601;51.356;12.458;2022-07-01T00:19:27;20.27;;;14.30;;
65033;SDS011;51601;51.356;12.458;2022-07-01T00:23:44;23.85;;;13.95;;
65033;SDS011;51601;51.356;12.458;2022-07-01T00:28:00;19.90;;;14.03;;
65033;SDS011;51601;51.356;12.458;2022-07-01T00:32:14;21.40;;;14.18;;
65033;SDS011;51601;51.356;12.458;2022-07-01T00:36:28;18.50;;;13.93;;
65033;SDS011;51601;51.356;12.458;2022-07-01T00:40:44;19.83;;;13.97;;
65033;SDS011;51601;51.356;12.458;2022-07-01T00:44:59;21.42;;;14.15;;
65033;SDS011;51601;51.356;12.458;2022-07-01T00:49:13;19.73;;;14.00;;
65033;SDS011;51601;51.356;12.458;2022-07-01T00:53:27;21.03;;;13.93;;
65033;SDS011;51601;51.356;12.458;2022-07-01T00:57:42;19.33;;;14.32;;
65033;SDS011;51601;51.356;12.458;2022-07-01T01:01:58;19.65;;;13.43;;
65033;SDS011;51601;51.356;12.458;2022-07-01T01:06:11;22.25;;;14.35;;
65033;SDS011;51601;51.356;12.458;2022-07-01T01:10:26;22.97;;;13.43;;
65033;SDS011;51601;51.356;12.458;2022-07-01T01:14:44;19.10;;;14.02;;
65033;SDS011;51601;51.356;12.458;2022-07-01T01:19:00;21.77;;;13.70;;
65033;SDS011;51601;51.356;12.458;2022-07-01T01:23:20;23.30;;;13.87;;
65033;SDS011;51601;51.356;12.458;2022-07-01T01:27:34;18.80;;;12.75;;
65033;SDS011;51601;51.356;12.458;2022-07-01T01:31:50;22.58;;;13.95;;
65033;SDS011;51601;51.356;12.458;2022-07-01T01:36:05;21.23;;;14.00;;
65033;SDS011;51601;51.356;12.458;2022-07-01T01:40:20;21.42;;;13.38;;
65033;SDS011;51601;51.356;12.458;2022-07-01T01:44:34;20.35;;;14.20;;
65033;SDS011;51601;51.356;12.458;2022-07-01T01:48:49;18.90;;;13.23;;
65033;SDS011;51601;51.356;12.458;2022-07-01T01:53:03;21.83;;;13.67;;
65033;SDS011;51601;51.356;12.458;2022-07-01T01:57:18;20.50;;;13.70;;
65033;SDS011;51601;51.356;12.458;2022-07-01T02:01:32;20.10;;;13.25;;
65033;SDS011;51601;51.356;12.458;2022-07-01T02:05:46;17.10;;;12.73;;
65033;SDS011;51601;51.356;12.458;2022-07-01T02:10:02;19.52;;;12.88;;
65033;SDS011;51601;51.356;12.458;2022-07-01T02:14:18;19.25;;;13.63;;
65033;SDS011;51601;51.356;12.458;2022-07-01T02:18:32;20.17;;;12.93;;
65033;SDS011;51601;51.356;12.458;2022-07-01T02:22:46;18.52;;;12.65;;
65033;SDS011;51601;51.356;12.458;2022-07-01T02:27:00;19.02;;;12.48;;
65033;SDS011;51601;51.356;12.458;2022-07-01T02:31:15;21.40;;;12.40;;
65033;SDS011;51601;51.356;12.458;2022-07-01T02:35:29;17.23;;;12.50;;
65033;SDS011;51601;51.356;12.458;2022-07-01T02:39:43;19.52;;;12.13;;
65033;SDS011;51601;51.356;12.458;2022-07-01T02:43:57;19.08;;;11.13;;
65033;SDS011;51601;51.356;12.458;2022-07-01T02:48:12;18.50;;;11.73;;
65033;SDS011;51601;51.356;12.458;2022-07-01T02:52:26;16.70;;;9.85;;
65033;SDS011;51601;51.356;12.458;2022-07-01T02:56:40;20.02;;;12.10;;
65033;SDS011;51601;51.356;12.458;2022-07-01T03:00:54;18.13;;;11.63;;
65033;SDS011;51601;51.356;12.458;2022-07-01T03:05:10;20.48;;;12.63;;
65033;SDS011;51601;51.356;12.458;2022-07-01T03:09:24;18.42;;;12.00;;
65033;SDS011;51601;51.356;12.458;2022-07-01T03:13:38;19.45;;;11.65;;
65033;SDS011;51601;51.356;12.458;2022-07-01T03:17:52;15.00;;;10.40;;
65033;SDS011;51601;51.356;12.458;2022-07-01T03:22:07;14.50;;;9.13;;
65033;SDS011;51601;51.356;12.458;2022-07-01T03:26:21;14.35;;;8.93;;
65033;SDS011;51601;51.356;12.458;2022-07-01T03:30:35;15.30;;;9.60;;
65033;SDS011;51601;51.356;12.458;2022-07-01T03:34:50;14.43;;;8.48;;
65033;SDS011;51601;51.356;12.458;2022-07-01T03:39:06;14.05;;;7.78;;
65033;SDS011;51601;51.356;12.458;2022-07-01T03:43:20;13.27;;;8.40;;
65033;SDS011;51601;51.356;12.458;2022-07-01T03:47:34;12.90;;;8.35;;
65033;SDS011;51601;51.356;12.458;2022-07-01T03:51:48;16.45;;;8.75;;
65033;SDS011;51601;51.356;12.458;2022-07-01T03:56:03;16.50;;;9.45;;
65033;SDS011;51601;51.356;12.458;2022-07-01T04:00:17;16.63;;;10.20;;
65033;SDS011;51601;51.356;12.458;2022-07-01T04:04:32;15.68;;;10.40;;
65033;SDS011;51601;51.356;12.458;2022-07-01T04:08:47;16.45;;;10.25;;
65033;SDS011;51601;51.356;12.458;2022-07-01T04:13:04;17.57;;;10.67;;
65033;SDS011;51601;51.356;12.458;2022-07-01T04:17:38;14.55;;;10.27;;
65033;SDS011;51601;51.356;12.458;2022-07-01T04:21:52;16.88;;;11.02;;
65033;SDS011;51601;51.356;12.458;2022-07-01T04:26:23;15.97;;;10.60;;
65033;SDS011;51601;51.356;12.458;2022-07-01T04:30:50;15.68;;;10.00;;
65033;SDS011;51601;51.356;12.458;2022-07-01T04:35:04;15.02;;;11.20;;
65033;SDS011;51601;51.356;12.458;2022-07-01T04:39:18;16.00;;;11.18;;
65033;SDS011;51601;51.356;12.458;2022-07-01T04:43:32;16.00;;;11.10;;
65033;SDS011;51601;51.356;12.458;2022-07-01T04:47:47;15.43;;;10.57;;
65033;SDS011;51601;51.356;12.458;2022-07-01T04:52:01;14.50;;;10.63;;
65033;SDS011;51601;51.356;12.458;2022-07-01T04:56:15;14.37;;;10.87;;
65033;SDS011;51601;51.356;12.458;2022-07-01T05:00:29;15.23;;;11.50;;
65033;SDS011;51601;51.356;12.458;2022-07-01T05:04:47;19.30;;;12.57;;
65033;SDS011;51601;51.356;12.458;2022-07-01T05:09:01;16.87;;;11.87;;
65033;SDS011;51601;51.356;12.458;2022-07-01T05:13:15;18.17;;;12.93;;
65033;SDS011;51601;51.356;12.458;2022-07-01T05:17:31;18.38;;;13.45;;
65033;SDS011;51601;51.356;12.458;2022-07-01T05:22:00;18.38;;;13.23;;
65033;SDS011;51601;51.356;12.458;2022-07-01T05:26:14;18.97;;;12.67;;
65033;SDS011;51601;51.356;12.458;2022-07-01T05:30:30;17.95;;;12.45;;
65033;SDS011;51601;51.356;12.458;2022-07-01T05:34:44;19.45;;;13.32;;
65033;SDS011;51601;51.356;12.458;2022-07-01T05:39:02;19.67;;;14.00;;
65033;SDS011;51601;51.356;12.458;2022-07-01T05:43:16;18.45;;;13.95;;
65033;SDS011;51601;51.356;12.458;2022-07-01T05:47:33;22.25;;;14.65;;
65033;SDS011;51601;51.356;12.458;2022-07-01T05:51:47;19.27;;;14.00;;
65033;SDS011;51601;51.356;12.458;2022-07-01T05:56:05;21.10;;;15.18;;
65033;SDS011;51601;51.356;12.458;2022-07-01T06:00:19;19.83;;;15.00;;
65033;SDS011;51601;51.356;12.458;2022-07-01T06:04:33;20.85;;;14.55;;
65033;SDS011;51601;51.356;12.458;2022-07-01T06:08:47;20.83;;;14.40;;
65033;SDS011;51601;51.356;12.458;2022-07-01T06:13:03;21.25;;;14.60;;
65033;SDS011;51601;51.356;12.458;2022-07-01T06:17:17;19.42;;;14.13;;
65033;SDS011;51601;51.356;12.458;2022-07-01T06:21:32;19.13;;;14.37;;
65033;SDS011;51601;51.356;12.458;2022-07-01T06:25:46;19.88;;;13.75;;
65033;SDS011;51601;51.356;12.458;2022-07-01T06:30:02;19.83;;;13.95;;
65033;SDS011;51601;51.356;12.458;2022-07-01T06:34:17;23.03;;;13.50;;
65033;SDS011;51601;51.356;12.458;2022-07-01T06:38:31;20.30;;;13.23;;
65033;SDS011;51601;51.356;12.458;2022-07-01T06:42:45;21.15;;;13.93;;
65033;SDS011;51601;51.356;12.458;2022-07-01T06:47:00;20.55;;;13.85;;
65033;SDS011;51601;51.356;12.458;2022-07-01T06:51:15;21.67;;;14.53;;
65033;SDS011;51601;51.356;12.458;2022-07-01T06:55:29;19.73;;;13.77;;
65033;SDS011;51601;51.356;12.458;2022-07-01T06:59:43;19.77;;;13.05;;
65033;SDS011;51601;51.356;12.458;2022-07-01T07:03:58;17.33;;;12.13;;
65033;SDS011;51601;51.356;12.458;2022-07-01T07:08:12;17.77;;;11.93;;
65033;SDS011;51601;51.356;12.458;2022-07-01T07:12:26;14.80;;;10.55;;
65033;SDS011;51601;51.356;12.458;2022-07-01T07:16:40;13.90;;;9.83;;
65033;SDS011;51601;51.356;12.458;2022-07-01T07:20:55;15.38;;;9.05;;
65033;SDS011;51601;51.356;12.458;2022-07-01T07:25:11;13.55;;;8.15;;
65033;SDS011;51601;51.356;12.458;2022-07-01T07:29:25;12.95;;;7.97;;
65033;SDS011;51601;51.356;12.458;2022-07-01T07:33:39;11.03;;;7.47;;
65033;SDS011;51601;51.356;12.458;2022-07-01T07:37:54;10.55;;;6.90;;
65033;SDS011;51601;51.356;12.458;2022-07-01T07:42:08;10.15;;;6.07;;
65033;SDS011;51601;51.356;12.458;2022-07-01T07:46:23;11.30;;;6.60;;
65033;SDS011;51601;51.356;12.458;2022-07-01T07:50:37;13.15;;;6.78;;
65033;SDS011;51601;51.356;12.458;2022-07-01T07:54:52;11.60;;;6.90;;
65033;SDS011;51601;51.356;12.458;2022-07-01T07:59:09;10.63;;;6.47;;
65033;SDS011;51601;51.356;12.458;2022-07-01T08:03:24;16.60;;;7.25;;
65033;SDS011;51601;51.356;12.458;2022-07-01T08:07:39;12.07;;;7.43;;
65033;SDS011;51601;51.356;12.458;2022-07-01T08:11:56;11.93;;;6.85;;
65033;SDS011;51601;51.356;12.458;2022-07-01T08:16:10;8.87;;;5.40;;
65033;SDS011;51601;51.356;12.458;2022-07-01T08:20:24;10.10;;;5.60;;
65033;SDS011;51601;51.356;12.458;2022-07-01T08:24:38;9.48;;;5.40;;
65033;SDS011;51601;51.356;12.458;2022-07-01T08:28:55;12.57;;;6.70;;
65033;SDS011;51601;51.356;12.458;2022-07-01T08:33:09;11.32;;;6.47;;
65033;SDS011;51601;51.356;12.458;2022-07-01T08:37:24;12.27;;;7.32;;
65033;SDS011;51601;51.356;12.458;2022-07-01T08:41:39;10.97;;;6.80;;
65033;SDS011;51601;51.356;12.458;2022-07-01T08:45:55;11.05;;;6.95;;
65033;SDS011;51601;51.356;12.458;2022-07-01T08:50:13;12.68;;;7.63;;
65033;SDS011;51601;51.356;12.458;2022-07-01T08:54:36;14.63;;;7.70;;
65033;SDS011;51601;51.356;12.458;2022-07-01T08:58:52;15.77;;;9.00;;
65033;SDS011;51601;51.356;12.458;2022-07-01T09:03:09;14.40;;;9.30;;
65033;SDS011;51601;51.356;12.458;2022-07-01T09:07:30;13.55;;;8.75;;
65033;SDS011;51601;51.356;12.458;2022-07-01T09:11:51;14.47;;;9.93;;
65033;SDS011;51601;51.356;12.458;2022-07-01T09:16:13;15.23;;;9.82;;
65033;SDS011;51601;51.356;12.458;2022-07-01T09:20:30;14.07;;;9.57;;
65033;SDS011;51601;51.356;12.458;2022-07-01T09:24:44;15.07;;;9.83;;
65033;SDS011;51601;51.356;12.458;2022-07-01T09:28:58;15.20;;;10.20;;
65033;SDS011;51601;51.356;12.458;2022-07-01T09:33:17;13.60;;;9.90;;
65033;SDS011;51601;51.356;12.458;2022-07-01T09:37:34;13.98;;;9.55;;
65033;SDS011;51601;51.356;12.458;2022-07-01T09:41:48;14.70;;;9.93;;
65033;SDS011;51601;51.356;12.458;2022-07-01T09:46:03;14.93;;;10.10;;
65033;SDS011;51601;51.356;12.458;2022-07-01T09:50:19;14.45;;;10.00;;
65033;SDS011;51601;51.356;12.458;2022-07-01T09:54:34;17.77;;;11.23;;
65033;SDS011;51601;51.356;12.458;2022-07-01T09:58:50;18.42;;;11.55;;
65033;SDS011;51601;51.356;12.458;2022-07-01T10:03:05;19.23;;;12.90;;
65033;SDS011;51601;51.356;12.458;2022-07-01T10:07:24;19.23;;;12.20;;
65033;SDS011;51601;51.356;12.458;2022-07-01T10:12:02;19.27;;;12.68;;
65033;SDS011;51601;51.356;12.458;2022-07-01T10:16:42;19.10;;;13.05;;
65033;SDS011;51601;51.356;12.458;2022-07-01T10:21:00;20.75;;;13.98;;
65033;SDS011;51601;51.356;12.458;2022-07-01T10:25:30;19.17;;;12.40;;
65033;SDS011;51601;51.356;12.458;2022-07-01T10:29:51;18.40;;;12.02;;
65033;SDS011;51601;51.356;12.458;2022-07-01T10:34:33;19.13;;;11.73;;
65033;SDS011;51601;51.356;12.458;2022-07-01T10:43:31;15.77;;;8.60;;
65033;SDS011;51601;51.356;12.458;2022-07-01T10:48:16;12.13;;;7.32;;
65033;SDS011;51601;51.356;12.458;2022-07-01T10:52:31;11.00;;;6.90;;
65033;SDS011;51601;51.356;12.458;2022-07-01T10:56:47;10.32;;;6.22;;
65033;SDS011;51601;51.356;12.458;2022-07-01T11:01:04;8.25;;;5.38;;
65033;SDS011;51601;51.356;12.458;2022-07-01T11:05:20;8.35;;;5.30;;
65033;SDS011;51601;51.356;12.458;2022-07-01T11:09:35;8.67;;;5.40;;
65033;SDS011;51601;51.356;12.458;2022-07-01T11:13:49;10.85;;;5.60;;
65033;SDS011;51601;51.356;12.458;2022-07-01T11:18:10;8.60;;;5.70;;
65033;SDS011;51601;51.356;12.458;2022-07-01T11:22:27;8.97;;;5.97;;
65033;SDS011;51601;51.356;12.458;2022-07-01T11:26:47;8.20;;;5.65;;
65033;SDS011;51601;51.356;12.458;2022-07-01T11:31:01;8.43;;;5.68;;
65033;SDS011;51601;51.356;12.458;2022-07-01T11:35:17;9.30;;;5.60;;
65033;SDS011;51601;51.356;12.458;2022-07-01T11:39:52;7.22;;;4.90;;
65033;SDS011;51601;51.356;12.458;2022-07-01T11:44:26;8.82;;;5.97;;
65033;SDS011;51601;51.356;12.458;2022-07-01T11:48:43;10.13;;;6.55;;
65033;SDS011;51601;51.356;12.458;2022-07-01T11:52:58;9.83;;;6.40;;
65033;SDS011;51601;51.356;12.458;2022-07-01T11:57:14;10.32;;;6.63;;
65033;SDS011;51601;51.356;12.458;2022-07-01T12:01:32;13.13;;;7.13;;
65033;SDS011;51601;51.356;12.458;2022-07-01T12:05:47;8.70;;;6.10;;
65033;SDS011;51601;51.356;12.458;2022-07-01T12:10:04;7.55;;;4.80;;
65033;SDS011;51601;51.356;12.458;2022-07-01T12:14:21;7.60;;;3.72;;
65033;SDS011;51601;51.356;12.458;2022-07-01T12:18:37;5.90;;;3.10;;
65033;SDS011;51601;51.356;12.458;2022-07-01T12:23:09;8.23;;;2.85;;
65033;SDS011;51601;51.356;12.458;2022-07-01T12:27:24;5.75;;;2.50;;
65033;SDS011;51601;51.356;12.458;2022-07-01T12:31:53;5.03;;;2.35;;
65033;SDS011;51601;51.356;12.458;2022-07-01T12:36:09;6.60;;;2.57;;
65033;SDS011;51601;51.356;12.458;2022-07-01T12:40:24;5.75;;;2.33;;
65033;SDS011;51601;51.356;12.458;2022-07-01T12:44:43;5.47;;;2.38;;
65033;SDS011;51601;51.356;12.458;2022-07-01T12:49:00;6.07;;;2.33;;
65033;SDS011;51601;51.356;12.458;2022-07-01T12:53:17;5.43;;;2.10;;
65033;SDS011;51601;51.356;12.458;2022-07-01T12:57:32;5.93;;;2.40;;
65033;SDS011;51601;51.356;12.458;2022-07-01T13:01:49;5.97;;;2.77;;
65033;SDS011;51601;51.356;12.458;2022-07-01T13:06:05;5.53;;;2.83;;
65033;SDS011;51601;51.356;12.458;2022-07-01T13:10:19;5.53;;;3.03;;
65033;SDS011;51601;51.356;12.458;2022-07-01T13:14:34;6.93;;;3.08;;
65033;SDS011;51601;51.356;12.458;2022-07-01T13:18:48;7.13;;;3.33;;
65033;SDS011;51601;51.356;12.458;2022-07-01T13:23:03;7.40;;;3.42;;
65033;SDS011;51601;51.356;12.458;2022-07-01T13:27:17;7.70;;;3.50;;
65033;SDS011;51601;51.356;12.458;2022-07-01T13:31:31;7.93;;;3.70;;
65033;SDS011;51601;51.356;12.458;2022-07-01T13:35:45;7.95;;;3.50;;
65033;SDS011;51601;51.356;12.458;2022-07-01T13:40:00;7.07;;;3.50;;
65033;SDS011;51601;51.356;12.458;2022-07-01T13:44:14;5.63;;;3.00;;
65033;SDS011;51601;51.356;12.458;2022-07-01T13:48:28;6.45;;;3.65;;
65033;SDS011;51601;51.356;12.458;2022-07-01T13:52:45;6.18;;;3.30;;
65033;SDS011;51601;51.356;12.458;2022-07-01T13:57:01;7.63;;;3.83;;
65033;SDS011;51601;51.356;12.458;2022-07-01T14:01:15;8.20;;;4.20;;
65033;SDS011;51601;51.356;12.458;2022-07-01T14:05:29;7.43;;;4.28;;
65033;SDS011;51601;51.356;12.458;2022-07-01T14:09:45;8.32;;;4.55;;
65033;SDS011;51601;51.356;12.458;2022-07-01T14:14:01;10.47;;;5.27;;
65033;SDS011;51601;51.356;12.458;2022-07-01T14:18:15;9.98;;;4.90;;
65033;SDS011;51601;51.356;12.458;2022-07-01T14:22:29;11.65;;;5.07;;
65033;SDS011;51601;51.356;12.458;2022-07-01T14:26:44;11.47;;;5.47;;
65033;SDS011;51601;51.356;12.458;2022-07-01T14:31:00;8.68;;;4.97;;
65033;SDS011;51601;51.356;12.458;2022-07-01T14:35:16;8.93;;;5.40;;
65033;SDS011;51601;51.356;12.458;2022-07-01T14:39:30;10.43;;;5.53;;
65033;SDS011;51601;51.356;12.458;2022-07-01T14:43:44;10.37;;;5.93;;
65033;SDS011;51601;51.356;12.458;2022-07-01T14:47:59;11.75;;;5.88;;
65033;SDS011;51601;51.356;12.458;2022-07-01T14:52:15;9.50;;;5.68;;
65033;SDS011;51601;51.356;12.458;2022-07-01T14:56:30;11.67;;;6.07;;
65033;SDS011;51601;51.356;12.458;2022-07-01T15:00:45;10.65;;;5.80;;
65033;SDS011;51601;51.356;12.458;2022-07-01T15:05:00;10.18;;;5.85;;
65033;SDS011;51601;51.356;12.458;2022-07-01T15:09:17;11.17;;;6.20;;
65033;SDS011;51601;51.356;12.458;2022-07-01T15:13:34;10.98;;;5.90;;
65033;SDS011;51601;51.356;12.458;2022-07-01T15:17:49;10.07;;;6.10;;
65033;SDS011;51601;51.356;12.458;2022-07-01T15:22:05;10.07;;;6.43;;
65033;SDS011;51601;51.356;12.458;2022-07-01T15:26:20;11.40;;;6.43;;
65033;SDS011;51601;51.356;12.458;2022-07-01T15:30:34;11.05;;;6.40;;
65033;SDS011;51601;51.356;12.458;2022-07-01T15:34:50;11.57;;;6.40;;
65033;SDS011;51601;51.356;12.458;2022-07-01T15:39:05;11.77;;;6.60;;
65033;SDS011;51601;51.356;12.458;2022-07-01T15:43:20;12.77;;;6.78;;
65033;SDS011;51601;51.356;12.458;2022-07-01T15:47:34;13.20;;;6.78;;
65033;SDS011;51601;51.356;12.458;2022-07-01T15:52:06;13.43;;;6.70;;
65033;SDS011;51601;51.356;12.458;2022-07-01T15:56:21;11.32;;;6.90;;
65033;SDS011;51601;51.356;12.458;2022-07-01T16:00:35;12.45;;;7.25;;
65033;SDS011;51601;51.356;12.458;2022-07-01T16:04:50;12.45;;;6.82;;
65033;SDS011;51601;51.356;12.458;2022-07-01T16:09:06;13.10;;;7.03;;
65033;SDS011;51601;51.356;12.458;2022-07-01T16:13:22;14.40;;;7.78;;
65033;SDS011;51601;51.356;12.458;2022-07-01T16:17:40;13.07;;;7.60;;
65033;SDS011;51601;51.356;12.458;2022-07-01T16:21:59;14.10;;;8.17;;
65033;SDS011;51601;51.356;12.458;2022-07-01T16:26:16;13.18;;;7.47;;
65033;SDS011;51601;51.356;12.458;2022-07-01T16:30:32;12.05;;;7.43;;
65033;SDS011;51601;51.356;12.458;2022-07-01T16:34:50;12.93;;;6.93;;
65033;SDS011;51601;51.356;12.458;2022-07-01T16:39:04;14.18;;;7.20;;
65033;SDS011;51601;51.356;12.458;2022-07-01T16:43:27;12.32;;;7.40;;
65033;SDS011;51601;51.356;12.458;2022-07-01T16:47:49;13.93;;;7.82;;
65033;SDS011;51601;51.356;12.458;2022-07-01T16:52:09;13.50;;;7.47;;
65033;SDS011;51601;51.356;12.458;2022-07-01T16:56:25;13.45;;;8.10;;
65033;SDS011;51601;51.356;12.458;2022-07-01T17:00:40;13.90;;;8.18;;
65033;SDS011;51601;51.356;12.458;2022-07-01T17:04:55;15.33;;;8.17;;
65033;SDS011;51601;51.356;12.458;2022-07-01T17:09:10;14.85;;;8.68;;
65033;SDS011;51601;51.356;12.458;2022-07-01T17:13:25;15.40;;;8.57;;
65033;SDS011;51601;51.356;12.458;2022-07-01T17:17:43;15.00;;;8.57;;
65033;SDS011;51601;51.356;12.458;2022-07-01T17:21:59;16.33;;;8.27;;
65033;SDS011;51601;51.356;12.458;2022-07-01T17:26:14;15.63;;;8.57;;
65033;SDS011;51601;51.356;12.458;2022-07-01T17:30:33;13.98;;;7.90;;
65033;SDS011;51601;51.356;12.458;2022-07-01T17:35:00;13.10;;;7.87;;
65033;SDS011;51601;51.356;12.458;2022-07-01T17:39:18;14.18;;;8.52;;
65033;SDS011;51601;51.356;12.458;2022-07-01T17:43:34;13.95;;;8.05;;
65033;SDS011;51601;51.356;12.458;2022-07-01T17:47:51;13.80;;;8.50;;
65033;SDS011;51601;51.356;12.458;2022-07-01T17:52:06;15.57;;;8.35;;
65033;SDS011;51601;51.356;12.458;2022-07-01T17:56:25;14.38;;;8.52;;
65033;SDS011;51601;51.356;12.458;2022-07-01T18:00:40;12.93;;;7.80;;
65033;SDS011;51601;51.356;12.458;2022-07-01T18:04:54;14.82;;;7.60;;
65033;SDS011;51601;51.356;12.458;2022-07-01T18:09:10;13.88;;;8.20;;
65033;SDS011;51601;51.356;12.458;2022-07-01T18:13:33;14.38;;;7.95;;
65033;SDS011;51601;51.356;12.458;2022-07-01T18:17:58;14.50;;;8.10;;
65033;SDS011;51601;51.356;12.458;2022-07-01T18:22:17;13.05;;;7.43;;
65033;SDS011;51601;51.356;12.458;2022-07-01T18:26:34;11.93;;;6.90;;
65033;SDS011;51601;51.356;12.458;2022-07-01T18:30:54;11.40;;;6.70;;
65033;SDS011;51601;51.356;12.458;2022-07-01T18:35:12;12.15;;;7.25;;
65033;SDS011;51601;51.356;12.458;2022-07-01T18:39:28;11.35;;;6.88;;
65033;SDS011;51601;51.356;12.458;2022-07-01T18:43:42;11.60;;;6.77;;
65033;SDS011;51601;51.356;12.458;2022-07-01T18:48:05;13.38;;;6.78;;
65033;SDS011;51601;51.356;12.458;2022-07-01T18:52:19;11.95;;;7.10;;
65033;SDS011;51601;51.356;12.458;2022-07-01T18:56:33;11.40;;;6.78;;
65033;SDS011;51601;51.356;12.458;2022-07-01T19:00:47;11.90;;;7.77;;
65033;SDS011;51601;51.356;12.458;2022-07-01T19:05:03;13.68;;;7.90;;
65033;SDS011;51601;51.356;12.458;2022-07-01T19:09:17;13.55;;;7.78;;
65033;SDS011;51601;51.356;12.458;2022-07-01T19:13:31;13.83;;;7.90;;
65033;SDS011;51601;51.356;12.458;2022-07-01T19:17:45;11.80;;;7.05;;
65033;SDS011;51601;51.356;12.458;2022-07-01T19:22:01;13.35;;;7.97;;
65033;SDS011;51601;51.356;12.458;2022-07-01T19:26:16;13.33;;;7.60;;
65033;SDS011;51601;51.356;12.458;2022-07-01T19:30:30;11.75;;;7.43;;
65033;SDS011;51601;51.356;12.458;2022-07-01T19:34:45;12.48;;;7.53;;
65033;SDS011;51601;51.356;12.458;2022-07-01T19:39:00;13.60;;;8.02;;
65033;SDS011;51601;51.356;12.458;2022-07-01T19:43:14;12.67;;;8.10;;
65033;SDS011;51601;51.356;12.458;2022-07-01T19:47:30;15.63;;;8.45;;
65033;SDS011;51601;51.356;12.458;2022-07-01T19:51:44;14.10;;;8.13;;
65033;SDS011;51601;51.356;12.458;2022-07-01T19:56:00;13.53;;;8.20;;
65033;SDS011;51601;51.356;12.458;2022-07-01T20:00:14;13.43;;;8.20;;
65033;SDS011;51601;51.356;12.458;2022-07-01T20:04:30;14.88;;;8.35;;
65033;SDS011;51601;51.356;12.458;2022-07-01T20:08:44;14.73;;;8.27;;
65033;SDS011;51601;51.356;12.458;2022-07-01T20:13:02;14.50;;;9.27;;
65033;SDS011;51601;51.356;12.458;2022-07-01T20:17:16;13.77;;;8.20;;
65033;SDS011;51601;51.356;12.458;2022-07-01T20:21:30;16.52;;;9.68;;
65033;SDS011;51601;51.356;12.458;2022-07-01T20:25:44;16.17;;;9.70;;
65033;SDS011;51601;51.356;12.458;2022-07-01T20:30:00;17.15;;;9.40;;
65033;SDS011;51601;51.356;12.458;2022-07-01T20:34:14;17.83;;;9.98;;
65033;SDS011;51601;51.356;12.458;2022-07-01T20:38:29;16.43;;;9.80;;
65033;SDS011;51601;51.356;12.458;2022-07-01T20:42:43;16.60;;;9.73;;
65033;SDS011;51601;51.356;12.458;2022-07-01T20:47:02;19.13;;;10.85;;
65033;SDS011;51601;51.356;12.458;2022-07-01T20:51:17;15.43;;;9.80;;
65033;SDS011;51601;51.356;12.458;2022-07-01T20:55:32;14.70;;;8.50;;
65033;SDS011;51601;51.356;12.458;2022-07-01T20:59:46;19.50;;;9.55;;
65033;SDS011;51601;51.356;12.458;2022-07-01T21:04:01;17.95;;;9.85;;
65033;SDS011;51601;51.356;12.458;2022-07-01T21:08:16;16.37;;;10.30;;
65033;SDS011;51601;51.356;12.458;2022-07-01T21:12:30;16.90;;;10.45;;
65033;SDS011;51601;51.356;12.458;2022-07-01T21:16:44;15.95;;;10.10;;
65033;SDS011;51601;51.356;12.458;2022-07-01T21:21:01;16.43;;;10.00;;
65033;SDS011;51601;51.356;12.458;2022-07-01T21:25:15;15.77;;;9.15;;
65033;SDS011;51601;51.356;12.458;2022-07-01T21:29:29;15.00;;;9.43;;
65033;SDS011;51601;51.356;12.458;2022-07-01T21:33:44;15.70;;;8.93;;
65033;SDS011;51601;51.356;12.458;2022-07-01T21:38:00;15.05;;;8.98;;
65033;SDS011;51601;51.356;12.458;2022-07-01T21:42:14;14.52;;;9.10;;
65033;SDS011;51601;51.356;12.458;2022-07-01T21:46:31;14.82;;;9.27;;
65033;SDS011;51601;51.356;12.458;2022-07-01T21:50:46;16.80;;;9.93;;
65033;SDS011;51601;51.356;12.458;2022-07-01T21:55:03;17.13;;;10.25;;
65033;SDS011;51601;51.356;12.458;2022-07-01T21:59:19;19.27;;;10.52;;
65033;SDS011;51601;51.356;12.458;2022-07-01T22:03:39;17.57;;;10.20;;
65033;SDS011;51601;51.356;12.458;2022-07-01T22:07:53;19.10;;;10.77;;
65033;SDS011;51601;51.356;12.458;2022-07-01T22:12:09;17.60;;;9.70;;
65033;SDS011;51601;51.356;12.458;2022-07-01T22:16:23;15.93;;;9.97;;
65033;SDS011;51601;51.356;12.458;2022-07-01T22:20:39;18.63;;;10.88;;
65033;SDS011;51601;51.356;12.458;2022-07-01T22:24:56;18.90;;;11.05;;
65033;SDS011;51601;51.356;12.458;2022-07-01T22:29:11;21.52;;;11.70;;
65033;SDS011;51601;51.356;12.458;2022-07-01T22:33:27;16.63;;;9.40;;
65033;SDS011;51601;51.356;12.458;2022-07-01T22:37:42;16.45;;;9.63;;
65033;SDS011;51601;51.356;12.458;2022-07-01T22:42:04;16.38;;;9.38;;
65033;SDS011;51601;51.356;12.458;2022-07-01T22:46:22;17.47;;;9.57;;
65033;SDS011;51601;51.356;12.458;2022-07-01T22:50:47;14.93;;;9.00;;
65033;SDS011;51601;51.356;12.458;2022-07-01T22:55:10;17.17;;;9.20;;
65033;SDS011;51601;51.356;12.458;2022-07-01T22:59:35;17.67;;;9.13;;
65033;SDS011;51601;51.356;12.458;2022-07-01T23:03:51;14.98;;;8.35;;
65033;SDS011;51601;51.356;12.458;2022-07-01T23:08:09;16.17;;;8.65;;
65033;SDS011;51601;51.356;12.458;2022-07-01T23:12:33;17.23;;;8.30;;
65033;SDS011;51601;51.356;12.458;2022-07-01T23:16:51;15.07;;;8.37;;
65033;SDS011;51601;51.356;12.458;2022-07-01T23:21:09;15.18;;;8.63;;
65033;SDS011;51601;51.356;12.458;2022-07-01T23:25:24;15.90;;;8.93;;
65033;SDS011;51601;51.356;12.458;2022-07-01T23:29:39;14.60;;;9.10;;
65033;SDS011;51601;51.356;12.458;2022-07-01T23:33:58;14.60;;;8.45;;
65033;SDS011;51601;51.356;12.458;2022-07-01T23:38:14;15.10;;;8.45;;
65033;SDS011;51601;51.356;12.458;2022-07-01T23:42:31;14.20;;;7.57;;
65033;SDS011;51601;51.356;12.458;2022-07-01T23:46:45;17.98;;;7.93;;
65033;SDS011;51601;51.356;12.458;2022-07-01T23:50:59;13.30;;;7.70;;
65033;SDS011;51601;51.356;12.458;2022-07-01T23:55:15;14.60;;;7.85;;
65033;SDS011;51601;51.356;12.458;2022-07-01T23:59:29;15.47;;;8.03;;
